sensor_id;sensor_type;location;lat;lon;timestamp;P1;durP1;ratioP1;P2;durP2;ratioP2
7659;SDS011;3872;47.902;8.162;2023-02-15T00:01:56;6.23;;;2.97;;
7659;SDS011;3872;47.902;8.162;2023-02-15T00:04:24;7.13;;;3.87;;
7659;SDS011;3872;47.902;8.162;2023-02-15T00:07:11;7.60;;;3.00;;
7659;SDS011;3872;47.902;8.162;2023-02-15T00:09:39;7.60;;;3.60;;
7659;SDS011;3872;47.902;8.162;2023-02-15T00:12:05;10.83;;;3.27;;
7659;SDS011;3872;47.902;8.162;2023-02-15T00:14:32;7.60;;;2.90;;
7659;SDS011;3872;47.902;8.162;2023-02-15T00:17:00;7.17;;;3.13;;
7659;SDS011;3872;47.902;8.162;2023-02-15T00:19:26;6.00;;;2.93;;
7659;SDS011;3872;47.902;8.162;2023-02-15T00:21:53;8.63;;;3.27;;
7659;SDS011;3872;47.902;8.162;2023-02-15T00:24:19;6.10;;;2.70;;
7659;SDS011;3872;47.902;8.162;2023-02-15T00:26:46;5.43;;;2.27;;
7659;SDS011;3872;47.902;8.162;2023-02-15T00:29:15;5.73;;;2.70;;
7659;SDS011;3872;47.902;8.162;2023-02-15T00:31:42;7.57;;;2.80;;
7659;SDS011;3872;47.902;8.162;2023-02-15T00:34:12;6.53;;;2.70;;
7659;SDS011;3872;47.902;8.162;2023-02-15T00:36:40;10.63;;;3.97;;
7659;SDS011;3872;47.902;8.162;2023-02-15T00:39:07;6.80;;;3.50;;
7659;SDS011;3872;47.902;8.162;2023-02-15T00:41:34;9.57;;;3.93;;
7659;SDS011;3872;47.902;8.162;2023-02-15T00:44:02;6.73;;;3.13;;
7659;SDS011;3872;47.902;8.162;2023-02-15T00:46:29;8.97;;;3.60;;
7659;SDS011;3872;47.902;8.162;2023-02-15T00:48:56;6.00;;;2.97;;
7659;SDS011;3872;47.902;8.162;2023-02-15T00:51:24;6.80;;;3.00;;
7659;SDS011;3872;47.902;8.162;2023-02-15T00:53:51;8.07;;;3.20;;
7659;SDS011;3872;47.902;8.162;2023-02-15T00:56:18;5.93;;;2.80;;
7659;SDS011;3872;47.902;8.162;2023-02-15T00:58:45;7.60;;;3.20;;
7659;SDS011;3872;47.902;8.162;2023-02-15T01:01:12;6.07;;;2.90;;
7659;SDS011;3872;47.902;8.162;2023-02-15T01:03:41;5.83;;;2.67;;
7659;SDS011;3872;47.902;8.162;2023-02-15T01:06:08;6.67;;;2.63;;
7659;SDS011;3872;47.902;8.162;2023-02-15T01:08:36;6.47;;;2.67;;
7659;SDS011;3872;47.902;8.162;2023-02-15T01:11:03;5.50;;;2.70;;
7659;SDS011;3872;47.902;8.162;2023-02-15T01:13:30;6.87;;;2.70;;
7659;SDS011;3872;47.902;8.162;2023-02-15T01:15:57;8.53;;;3.40;;
7659;SDS011;3872;47.902;8.162;2023-02-15T01:18:24;6.93;;;2.93;;
7659;SDS011;3872;47.902;8.162;2023-02-15T01:20:51;11.53;;;2.87;;
7659;SDS011;3872;47.902;8.162;2023-02-15T01:23:18;7.43;;;3.30;;
7659;SDS011;3872;47.902;8.162;2023-02-15T01:25:46;10.00;;;3.47;;
7659;SDS011;3872;47.902;8.162;2023-02-15T01:28:13;8.70;;;2.63;;
7659;SDS011;3872;47.902;8.162;2023-02-15T01:30:40;7.87;;;3.47;;
7659;SDS011;3872;47.902;8.162;2023-02-15T01:33:07;6.53;;;3.00;;
7659;SDS011;3872;47.902;8.162;2023-02-15T01:35:42;7.37;;;3.67;;
7659;SDS011;3872;47.902;8.162;2023-02-15T01:38:09;8.70;;;2.83;;
7659;SDS011;3872;47.902;8.162;2023-02-15T01:40:36;7.60;;;2.67;;
7659;SDS011;3872;47.902;8.162;2023-02-15T01:43:08;17.67;;;3.50;;
7659;SDS011;3872;47.902;8.162;2023-02-15T01:45:37;6.40;;;2.83;;
7659;SDS011;3872;47.902;8.162;2023-02-15T01:48:04;8.57;;;3.90;;
7659;SDS011;3872;47.902;8.162;2023-02-15T01:50:40;6.53;;;2.90;;
7659;SDS011;3872;47.902;8.162;2023-02-15T01:53:10;6.93;;;2.93;;
7659;SDS011;3872;47.902;8.162;2023-02-15T01:55:42;6.00;;;3.03;;
7659;SDS011;3872;47.902;8.162;2023-02-15T01:58:15;9.40;;;2.60;;
7659;SDS011;3872;47.902;8.162;2023-02-15T02:00:43;8.00;;;3.60;;
7659;SDS011;3872;47.902;8.162;2023-02-15T02:03:10;7.97;;;2.50;;
7659;SDS011;3872;47.902;8.162;2023-02-15T02:05:38;7.17;;;2.40;;
7659;SDS011;3872;47.902;8.162;2023-02-15T02:08:05;6.03;;;2.47;;
7659;SDS011;3872;47.902;8.162;2023-02-15T02:10:34;6.60;;;2.67;;
7659;SDS011;3872;47.902;8.162;2023-02-15T02:13:03;6.30;;;2.73;;
7659;SDS011;3872;47.902;8.162;2023-02-15T02:15:37;5.83;;;2.67;;
7659;SDS011;3872;47.902;8.162;2023-02-15T02:18:17;5.87;;;2.57;;
7659;SDS011;3872;47.902;8.162;2023-02-15T02:20:59;5.00;;;2.37;;
7659;SDS011;3872;47.902;8.162;2023-02-15T02:23:49;4.57;;;2.27;;
7659;SDS011;3872;47.902;8.162;2023-02-15T02:26:43;6.80;;;2.80;;
7659;SDS011;3872;47.902;8.162;2023-02-15T02:29:33;5.07;;;2.20;;
7659;SDS011;3872;47.902;8.162;2023-02-15T02:32:28;4.73;;;2.20;;
7659;SDS011;3872;47.902;8.162;2023-02-15T02:35:22;6.63;;;2.70;;
7659;SDS011;3872;47.902;8.162;2023-02-15T02:37:54;6.10;;;2.50;;
7659;SDS011;3872;47.902;8.162;2023-02-15T02:40:30;6.00;;;2.50;;
7659;SDS011;3872;47.902;8.162;2023-02-15T02:43:07;7.57;;;2.30;;
7659;SDS011;3872;47.902;8.162;2023-02-15T02:45:39;7.60;;;2.20;;
7659;SDS011;3872;47.902;8.162;2023-02-15T02:48:09;4.67;;;1.60;;
7659;SDS011;3872;47.902;8.162;2023-02-15T02:50:42;5.80;;;3.00;;
7659;SDS011;3872;47.902;8.162;2023-02-15T02:53:09;9.43;;;2.80;;
7659;SDS011;3872;47.902;8.162;2023-02-15T02:55:37;5.10;;;2.13;;
7659;SDS011;3872;47.902;8.162;2023-02-15T02:58:09;5.47;;;2.27;;
7659;SDS011;3872;47.902;8.162;2023-02-15T03:00:41;6.33;;;2.30;;
7659;SDS011;3872;47.902;8.162;2023-02-15T03:03:11;7.40;;;2.33;;
7659;SDS011;3872;47.902;8.162;2023-02-15T03:05:45;5.53;;;2.10;;
7659;SDS011;3872;47.902;8.162;2023-02-15T03:08:15;7.50;;;2.20;;
7659;SDS011;3872;47.902;8.162;2023-02-15T03:10:47;5.60;;;2.40;;
7659;SDS011;3872;47.902;8.162;2023-02-15T03:13:15;8.67;;;3.00;;
7659;SDS011;3872;47.902;8.162;2023-02-15T03:15:42;6.50;;;2.57;;
7659;SDS011;3872;47.902;8.162;2023-02-15T03:18:25;5.43;;;2.43;;
7659;SDS011;3872;47.902;8.162;2023-02-15T03:20:58;4.37;;;2.33;;
7659;SDS011;3872;47.902;8.162;2023-02-15T03:23:29;7.17;;;3.03;;
7659;SDS011;3872;47.902;8.162;2023-02-15T03:25:59;6.13;;;2.57;;
7659;SDS011;3872;47.902;8.162;2023-02-15T03:28:32;25.93;;;2.77;;
7659;SDS011;3872;47.902;8.162;2023-02-15T03:31:02;4.87;;;2.03;;
7659;SDS011;3872;47.902;8.162;2023-02-15T03:33:31;5.60;;;1.83;;
7659;SDS011;3872;47.902;8.162;2023-02-15T03:36:04;5.47;;;2.00;;
7659;SDS011;3872;47.902;8.162;2023-02-15T03:38:36;4.23;;;1.90;;
7659;SDS011;3872;47.902;8.162;2023-02-15T03:41:09;9.83;;;2.40;;
7659;SDS011;3872;47.902;8.162;2023-02-15T03:43:41;5.13;;;2.23;;
7659;SDS011;3872;47.902;8.162;2023-02-15T03:46:15;6.77;;;2.67;;
7659;SDS011;3872;47.902;8.162;2023-02-15T03:48:50;5.30;;;2.00;;
7659;SDS011;3872;47.902;8.162;2023-02-15T03:51:21;5.77;;;2.10;;
7659;SDS011;3872;47.902;8.162;2023-02-15T03:54:01;5.80;;;2.40;;
7659;SDS011;3872;47.902;8.162;2023-02-15T03:56:30;5.10;;;2.00;;
7659;SDS011;3872;47.902;8.162;2023-02-15T03:58:57;6.97;;;2.73;;
7659;SDS011;3872;47.902;8.162;2023-02-15T04:01:44;5.63;;;2.43;;
7659;SDS011;3872;47.902;8.162;2023-02-15T04:04:30;4.70;;;1.90;;
7659;SDS011;3872;47.902;8.162;2023-02-15T04:07:01;5.90;;;2.50;;
7659;SDS011;3872;47.902;8.162;2023-02-15T04:09:29;4.50;;;2.00;;
7659;SDS011;3872;47.902;8.162;2023-02-15T04:12:13;6.73;;;2.70;;
7659;SDS011;3872;47.902;8.162;2023-02-15T04:14:40;5.90;;;2.67;;
7659;SDS011;3872;47.902;8.162;2023-02-15T04:17:24;5.60;;;2.47;;
7659;SDS011;3872;47.902;8.162;2023-02-15T04:19:50;4.30;;;1.93;;
7659;SDS011;3872;47.902;8.162;2023-02-15T04:22:35;6.40;;;2.20;;
7659;SDS011;3872;47.902;8.162;2023-02-15T04:25:20;4.57;;;2.20;;
7659;SDS011;3872;47.902;8.162;2023-02-15T04:27:49;7.63;;;2.50;;
7659;SDS011;3872;47.902;8.162;2023-02-15T04:30:19;5.93;;;2.40;;
7659;SDS011;3872;47.902;8.162;2023-02-15T04:32:47;5.90;;;2.20;;
7659;SDS011;3872;47.902;8.162;2023-02-15T04:35:13;7.60;;;3.13;;
7659;SDS011;3872;47.902;8.162;2023-02-15T04:37:42;7.00;;;2.37;;
7659;SDS011;3872;47.902;8.162;2023-02-15T04:40:10;4.17;;;2.10;;
7659;SDS011;3872;47.902;8.162;2023-02-15T04:42:39;5.77;;;2.50;;
7659;SDS011;3872;47.902;8.162;2023-02-15T04:45:06;5.40;;;1.80;;
7659;SDS011;3872;47.902;8.162;2023-02-15T04:47:33;4.90;;;1.80;;
7659;SDS011;3872;47.902;8.162;2023-02-15T04:50:00;8.47;;;2.17;;
7659;SDS011;3872;47.902;8.162;2023-02-15T04:52:26;5.50;;;2.10;;
7659;SDS011;3872;47.902;8.162;2023-02-15T04:54:54;7.43;;;2.40;;
7659;SDS011;3872;47.902;8.162;2023-02-15T04:57:21;5.53;;;2.17;;
7659;SDS011;3872;47.902;8.162;2023-02-15T04:59:47;8.23;;;2.30;;
7659;SDS011;3872;47.902;8.162;2023-02-15T05:02:14;4.67;;;2.07;;
7659;SDS011;3872;47.902;8.162;2023-02-15T05:04:40;8.90;;;2.53;;
7659;SDS011;3872;47.902;8.162;2023-02-15T05:07:07;3.90;;;1.57;;
7659;SDS011;3872;47.902;8.162;2023-02-15T05:09:33;5.93;;;2.40;;
7659;SDS011;3872;47.902;8.162;2023-02-15T05:12:01;6.93;;;2.30;;
7659;SDS011;3872;47.902;8.162;2023-02-15T05:14:28;4.83;;;2.27;;
7659;SDS011;3872;47.902;8.162;2023-02-15T05:16:54;7.00;;;2.50;;
7659;SDS011;3872;47.902;8.162;2023-02-15T05:19:21;4.87;;;2.00;;
7659;SDS011;3872;47.902;8.162;2023-02-15T05:21:49;5.47;;;1.67;;
7659;SDS011;3872;47.902;8.162;2023-02-15T05:24:16;5.87;;;2.00;;
7659;SDS011;3872;47.902;8.162;2023-02-15T05:27:01;5.27;;;2.20;;
7659;SDS011;3872;47.902;8.162;2023-02-15T05:29:45;6.33;;;2.77;;
7659;SDS011;3872;47.902;8.162;2023-02-15T05:32:12;6.13;;;2.73;;
7659;SDS011;3872;47.902;8.162;2023-02-15T05:34:39;9.83;;;3.40;;
7659;SDS011;3872;47.902;8.162;2023-02-15T05:37:06;10.10;;;2.83;;
7659;SDS011;3872;47.902;8.162;2023-02-15T05:39:33;5.80;;;2.67;;
7659;SDS011;3872;47.902;8.162;2023-02-15T05:42:00;10.93;;;4.63;;
7659;SDS011;3872;47.902;8.162;2023-02-15T05:44:28;7.40;;;3.40;;
7659;SDS011;3872;47.902;8.162;2023-02-15T05:46:54;6.87;;;2.60;;
7659;SDS011;3872;47.902;8.162;2023-02-15T05:49:21;7.37;;;3.57;;
7659;SDS011;3872;47.902;8.162;2023-02-15T05:51:48;6.60;;;2.83;;
7659;SDS011;3872;47.902;8.162;2023-02-15T05:54:14;6.73;;;2.97;;
7659;SDS011;3872;47.902;8.162;2023-02-15T05:56:41;4.83;;;1.77;;
7659;SDS011;3872;47.902;8.162;2023-02-15T05:59:09;4.80;;;2.10;;
7659;SDS011;3872;47.902;8.162;2023-02-15T06:01:35;5.53;;;2.47;;
7659;SDS011;3872;47.902;8.162;2023-02-15T06:04:02;8.07;;;2.43;;
7659;SDS011;3872;47.902;8.162;2023-02-15T06:06:29;4.37;;;2.10;;
7659;SDS011;3872;47.902;8.162;2023-02-15T06:08:55;5.93;;;2.23;;
7659;SDS011;3872;47.902;8.162;2023-02-15T06:11:22;6.63;;;1.57;;
7659;SDS011;3872;47.902;8.162;2023-02-15T06:13:48;4.40;;;2.17;;
7659;SDS011;3872;47.902;8.162;2023-02-15T06:16:16;5.00;;;2.53;;
7659;SDS011;3872;47.902;8.162;2023-02-15T06:18:43;6.23;;;2.33;;
7659;SDS011;3872;47.902;8.162;2023-02-15T06:21:09;7.90;;;2.60;;
7659;SDS011;3872;47.902;8.162;2023-02-15T06:23:36;7.80;;;2.50;;
7659;SDS011;3872;47.902;8.162;2023-02-15T06:26:02;4.90;;;2.10;;
7659;SDS011;3872;47.902;8.162;2023-02-15T06:28:29;6.47;;;2.70;;
7659;SDS011;3872;47.902;8.162;2023-02-15T06:30:56;5.50;;;2.00;;
7659;SDS011;3872;47.902;8.162;2023-02-15T06:33:23;6.00;;;3.13;;
7659;SDS011;3872;47.902;8.162;2023-02-15T06:35:50;6.67;;;1.90;;
7659;SDS011;3872;47.902;8.162;2023-02-15T06:38:16;6.63;;;2.17;;
7659;SDS011;3872;47.902;8.162;2023-02-15T06:40:43;5.60;;;2.10;;
7659;SDS011;3872;47.902;8.162;2023-02-15T06:43:10;3.83;;;1.70;;
7659;SDS011;3872;47.902;8.162;2023-02-15T06:45:36;5.23;;;2.37;;
7659;SDS011;3872;47.902;8.162;2023-02-15T06:48:03;5.63;;;2.33;;
7659;SDS011;3872;47.902;8.162;2023-02-15T06:50:33;8.07;;;2.20;;
7659;SDS011;3872;47.902;8.162;2023-02-15T06:53:00;4.10;;;1.93;;
7659;SDS011;3872;47.902;8.162;2023-02-15T06:55:26;5.10;;;2.07;;
7659;SDS011;3872;47.902;8.162;2023-02-15T06:57:53;4.67;;;1.90;;
7659;SDS011;3872;47.902;8.162;2023-02-15T07:00:20;5.20;;;2.30;;
7659;SDS011;3872;47.902;8.162;2023-02-15T07:02:48;5.50;;;2.10;;
7659;SDS011;3872;47.902;8.162;2023-02-15T07:05:21;5.60;;;2.00;;
7659;SDS011;3872;47.902;8.162;2023-02-15T07:07:49;9.93;;;2.70;;
7659;SDS011;3872;47.902;8.162;2023-02-15T07:10:16;5.03;;;2.10;;
7659;SDS011;3872;47.902;8.162;2023-02-15T07:12:43;5.47;;;2.30;;
7659;SDS011;3872;47.902;8.162;2023-02-15T07:15:10;6.27;;;2.13;;
7659;SDS011;3872;47.902;8.162;2023-02-15T07:17:37;5.17;;;2.13;;
7659;SDS011;3872;47.902;8.162;2023-02-15T07:20:05;6.10;;;2.33;;
7659;SDS011;3872;47.902;8.162;2023-02-15T07:22:35;5.00;;;2.53;;
7659;SDS011;3872;47.902;8.162;2023-02-15T07:25:03;5.10;;;1.80;;
7659;SDS011;3872;47.902;8.162;2023-02-15T07:27:30;5.70;;;2.87;;
7659;SDS011;3872;47.902;8.162;2023-02-15T07:29:57;5.67;;;2.23;;
7659;SDS011;3872;47.902;8.162;2023-02-15T07:32:26;5.70;;;2.20;;
7659;SDS011;3872;47.902;8.162;2023-02-15T07:34:54;9.17;;;3.03;;
7659;SDS011;3872;47.902;8.162;2023-02-15T07:37:21;8.50;;;2.80;;
7659;SDS011;3872;47.902;8.162;2023-02-15T07:39:47;11.83;;;2.23;;
7659;SDS011;3872;47.902;8.162;2023-02-15T07:42:15;5.07;;;2.27;;
7659;SDS011;3872;47.902;8.162;2023-02-15T07:44:42;4.10;;;1.90;;
7659;SDS011;3872;47.902;8.162;2023-02-15T07:47:09;5.53;;;1.97;;
7659;SDS011;3872;47.902;8.162;2023-02-15T07:49:37;6.53;;;2.90;;
7659;SDS011;3872;47.902;8.162;2023-02-15T07:52:03;6.13;;;2.47;;
7659;SDS011;3872;47.902;8.162;2023-02-15T07:54:30;6.80;;;2.10;;
7659;SDS011;3872;47.902;8.162;2023-02-15T07:56:56;5.63;;;2.30;;
7659;SDS011;3872;47.902;8.162;2023-02-15T07:59:24;3.90;;;1.83;;
7659;SDS011;3872;47.902;8.162;2023-02-15T08:01:52;6.30;;;2.40;;
7659;SDS011;3872;47.902;8.162;2023-02-15T08:04:21;4.90;;;1.87;;
7659;SDS011;3872;47.902;8.162;2023-02-15T08:06:47;4.73;;;2.47;;
7659;SDS011;3872;47.902;8.162;2023-02-15T08:09:18;6.03;;;2.63;;
7659;SDS011;3872;47.902;8.162;2023-02-15T08:11:45;5.27;;;2.53;;
7659;SDS011;3872;47.902;8.162;2023-02-15T08:14:16;4.90;;;1.53;;
7659;SDS011;3872;47.902;8.162;2023-02-15T08:16:47;6.57;;;2.50;;
7659;SDS011;3872;47.902;8.162;2023-02-15T08:19:15;4.30;;;1.60;;
7659;SDS011;3872;47.902;8.162;2023-02-15T08:21:44;5.20;;;1.90;;
7659;SDS011;3872;47.902;8.162;2023-02-15T08:24:12;4.80;;;2.17;;
7659;SDS011;3872;47.902;8.162;2023-02-15T08:26:40;7.50;;;1.53;;
7659;SDS011;3872;47.902;8.162;2023-02-15T08:29:08;3.60;;;1.37;;
7659;SDS011;3872;47.902;8.162;2023-02-15T08:31:35;4.20;;;1.50;;
7659;SDS011;3872;47.902;8.162;2023-02-15T08:34:04;5.13;;;1.70;;
7659;SDS011;3872;47.902;8.162;2023-02-15T08:36:30;4.63;;;1.90;;
7659;SDS011;3872;47.902;8.162;2023-02-15T08:38:58;6.40;;;1.70;;
7659;SDS011;3872;47.902;8.162;2023-02-15T08:41:26;4.20;;;1.40;;
7659;SDS011;3872;47.902;8.162;2023-02-15T08:43:55;5.00;;;1.90;;
7659;SDS011;3872;47.902;8.162;2023-02-15T08:46:24;4.10;;;1.30;;
7659;SDS011;3872;47.902;8.162;2023-02-15T08:48:52;3.80;;;1.73;;
7659;SDS011;3872;47.902;8.162;2023-02-15T08:51:21;4.33;;;1.60;;
7659;SDS011;3872;47.902;8.162;2023-02-15T08:53:49;4.40;;;1.43;;
7659;SDS011;3872;47.902;8.162;2023-02-15T08:56:18;3.60;;;1.00;;
7659;SDS011;3872;47.902;8.162;2023-02-15T08:58:46;4.07;;;1.43;;
7659;SDS011;3872;47.902;8.162;2023-02-15T09:01:14;4.27;;;1.47;;
7659;SDS011;3872;47.902;8.162;2023-02-15T09:03:43;3.70;;;0.90;;
7659;SDS011;3872;47.902;8.162;2023-02-15T09:06:10;3.90;;;0.83;;
7659;SDS011;3872;47.902;8.162;2023-02-15T09:08:40;4.47;;;1.40;;
7659;SDS011;3872;47.902;8.162;2023-02-15T09:11:07;12.53;;;0.93;;
7659;SDS011;3872;47.902;8.162;2023-02-15T09:13:35;3.90;;;1.00;;
7659;SDS011;3872;47.902;8.162;2023-02-15T09:16:02;3.70;;;0.93;;
7659;SDS011;3872;47.902;8.162;2023-02-15T09:18:30;3.30;;;0.70;;
7659;SDS011;3872;47.902;8.162;2023-02-15T09:21:03;3.50;;;0.90;;
7659;SDS011;3872;47.902;8.162;2023-02-15T09:23:31;3.60;;;0.80;;
7659;SDS011;3872;47.902;8.162;2023-02-15T09:26:02;3.90;;;0.90;;
7659;SDS011;3872;47.902;8.162;2023-02-15T09:28:30;3.80;;;0.80;;
7659;SDS011;3872;47.902;8.162;2023-02-15T09:31:03;3.43;;;0.90;;
7659;SDS011;3872;47.902;8.162;2023-02-15T09:33:32;3.43;;;0.90;;
7659;SDS011;3872;47.902;8.162;2023-02-15T09:35:59;4.37;;;1.30;;
7659;SDS011;3872;47.902;8.162;2023-02-15T09:38:26;3.93;;;0.77;;
7659;SDS011;3872;47.902;8.162;2023-02-15T09:40:54;3.73;;;1.00;;
7659;SDS011;3872;47.902;8.162;2023-02-15T09:43:32;3.40;;;0.80;;
7659;SDS011;3872;47.902;8.162;2023-02-15T09:49:04;4.20;;;1.00;;
7659;SDS011;3872;47.902;8.162;2023-02-15T09:51:39;3.70;;;0.93;;
7659;SDS011;3872;47.902;8.162;2023-02-15T09:54:26;4.13;;;0.83;;
7659;SDS011;3872;47.902;8.162;2023-02-15T09:57:06;3.50;;;1.10;;
7659;SDS011;3872;47.902;8.162;2023-02-15T09:59:44;3.50;;;0.80;;
7659;SDS011;3872;47.902;8.162;2023-02-15T10:02:27;3.50;;;0.80;;
7659;SDS011;3872;47.902;8.162;2023-02-15T10:05:08;3.60;;;0.80;;
7659;SDS011;3872;47.902;8.162;2023-02-15T10:07:47;4.33;;;0.80;;
7659;SDS011;3872;47.902;8.162;2023-02-15T10:10:30;3.60;;;0.90;;
7659;SDS011;3872;47.902;8.162;2023-02-15T10:13:08;4.27;;;0.97;;
7659;SDS011;3872;47.902;8.162;2023-02-15T10:15:59;4.53;;;0.80;;
7659;SDS011;3872;47.902;8.162;2023-02-15T10:18:42;3.23;;;0.60;;
7659;SDS011;3872;47.902;8.162;2023-02-15T10:21:22;3.80;;;1.10;;
7659;SDS011;3872;47.902;8.162;2023-02-15T10:26:50;3.80;;;0.93;;
7659;SDS011;3872;47.902;8.162;2023-02-15T10:29:19;3.60;;;0.90;;
7659;SDS011;3872;47.902;8.162;2023-02-15T10:31:59;3.80;;;0.70;;
7659;SDS011;3872;47.902;8.162;2023-02-15T10:34:38;3.70;;;1.03;;
7659;SDS011;3872;47.902;8.162;2023-02-15T10:40:20;4.33;;;1.20;;
7659;SDS011;3872;47.902;8.162;2023-02-15T10:42:59;4.80;;;1.47;;
7659;SDS011;3872;47.902;8.162;2023-02-15T10:45:40;4.87;;;2.30;;
7659;SDS011;3872;47.902;8.162;2023-02-15T10:48:26;4.40;;;1.60;;
7659;SDS011;3872;47.902;8.162;2023-02-15T10:51:17;3.63;;;0.80;;
7659;SDS011;3872;47.902;8.162;2023-02-15T10:53:56;8.73;;;1.13;;
7659;SDS011;3872;47.902;8.162;2023-02-15T10:56:34;8.67;;;1.00;;
7659;SDS011;3872;47.902;8.162;2023-02-15T10:59:11;5.30;;;0.80;;
7659;SDS011;3872;47.902;8.162;2023-02-15T11:01:53;12.93;;;1.00;;
7659;SDS011;3872;47.902;8.162;2023-02-15T11:04:41;5.43;;;1.00;;
7659;SDS011;3872;47.902;8.162;2023-02-15T11:07:15;3.60;;;0.70;;
7659;SDS011;3872;47.902;8.162;2023-02-15T11:09:46;3.97;;;0.73;;
7659;SDS011;3872;47.902;8.162;2023-02-15T11:12:16;3.60;;;0.80;;
7659;SDS011;3872;47.902;8.162;2023-02-15T11:14:46;3.47;;;0.70;;
7659;SDS011;3872;47.902;8.162;2023-02-15T11:17:19;3.40;;;0.70;;
7659;SDS011;3872;47.902;8.162;2023-02-15T11:19:54;3.60;;;0.80;;
7659;SDS011;3872;47.902;8.162;2023-02-15T11:22:27;3.60;;;0.80;;
7659;SDS011;3872;47.902;8.162;2023-02-15T11:24:56;3.80;;;0.60;;
7659;SDS011;3872;47.902;8.162;2023-02-15T11:27:25;3.87;;;0.90;;
7659;SDS011;3872;47.902;8.162;2023-02-15T11:29:57;5.93;;;0.90;;
7659;SDS011;3872;47.902;8.162;2023-02-15T11:32:27;4.20;;;0.87;;
7659;SDS011;3872;47.902;8.162;2023-02-15T11:34:59;3.60;;;0.70;;
7659;SDS011;3872;47.902;8.162;2023-02-15T11:37:32;6.53;;;0.70;;
7659;SDS011;3872;47.902;8.162;2023-02-15T11:40:02;3.80;;;0.73;;
7659;SDS011;3872;47.902;8.162;2023-02-15T11:42:41;4.60;;;0.83;;
7659;SDS011;3872;47.902;8.162;2023-02-15T11:45:15;3.73;;;0.60;;
7659;SDS011;3872;47.902;8.162;2023-02-15T11:47:47;4.20;;;0.70;;
7659;SDS011;3872;47.902;8.162;2023-02-15T11:50:16;4.03;;;0.80;;
7659;SDS011;3872;47.902;8.162;2023-02-15T11:52:47;4.10;;;0.80;;
7659;SDS011;3872;47.902;8.162;2023-02-15T11:55:14;4.40;;;1.00;;
7659;SDS011;3872;47.902;8.162;2023-02-15T11:57:47;4.30;;;0.90;;
7659;SDS011;3872;47.902;8.162;2023-02-15T12:00:22;4.23;;;0.70;;
7659;SDS011;3872;47.902;8.162;2023-02-15T12:02:56;10.40;;;1.10;;
7659;SDS011;3872;47.902;8.162;2023-02-15T12:05:25;5.10;;;1.03;;
7659;SDS011;3872;47.902;8.162;2023-02-15T12:07:52;7.70;;;1.00;;
7659;SDS011;3872;47.902;8.162;2023-02-15T12:10:22;4.60;;;0.93;;
7659;SDS011;3872;47.902;8.162;2023-02-15T12:13:07;4.60;;;1.10;;
7659;SDS011;3872;47.902;8.162;2023-02-15T12:15:36;4.53;;;1.00;;
7659;SDS011;3872;47.902;8.162;2023-02-15T12:18:15;4.60;;;1.20;;
7659;SDS011;3872;47.902;8.162;2023-02-15T12:20:46;7.80;;;1.20;;
7659;SDS011;3872;47.902;8.162;2023-02-15T12:23:14;6.20;;;0.90;;
7659;SDS011;3872;47.902;8.162;2023-02-15T12:25:42;4.20;;;0.87;;
7659;SDS011;3872;47.902;8.162;2023-02-15T12:28:21;4.30;;;0.90;;
7659;SDS011;3872;47.902;8.162;2023-02-15T12:30:52;3.90;;;0.70;;
7659;SDS011;3872;47.902;8.162;2023-02-15T12:33:23;4.50;;;1.13;;
7659;SDS011;3872;47.902;8.162;2023-02-15T12:35:59;4.50;;;0.90;;
7659;SDS011;3872;47.902;8.162;2023-02-15T12:38:27;4.30;;;0.90;;
7659;SDS011;3872;47.902;8.162;2023-02-15T12:40:58;6.20;;;1.20;;
7659;SDS011;3872;47.902;8.162;2023-02-15T12:43:26;5.23;;;0.97;;
7659;SDS011;3872;47.902;8.162;2023-02-15T12:46:12;4.10;;;0.90;;
7659;SDS011;3872;47.902;8.162;2023-02-15T12:48:45;5.90;;;0.90;;
7659;SDS011;3872;47.902;8.162;2023-02-15T12:51:13;8.17;;;0.73;;
7659;SDS011;3872;47.902;8.162;2023-02-15T12:53:41;5.60;;;1.07;;
7659;SDS011;3872;47.902;8.162;2023-02-15T12:56:08;4.70;;;1.10;;
7659;SDS011;3872;47.902;8.162;2023-02-15T12:58:36;5.30;;;1.00;;
7659;SDS011;3872;47.902;8.162;2023-02-15T13:01:11;4.17;;;0.90;;
7659;SDS011;3872;47.902;8.162;2023-02-15T13:03:50;5.90;;;1.23;;
7659;SDS011;3872;47.902;8.162;2023-02-15T13:06:24;7.60;;;0.97;;
7659;SDS011;3872;47.902;8.162;2023-02-15T13:08:52;4.10;;;1.10;;
7659;SDS011;3872;47.902;8.162;2023-02-15T13:11:21;4.63;;;1.17;;
7659;SDS011;3872;47.902;8.162;2023-02-15T13:13:53;18.30;;;1.20;;
7659;SDS011;3872;47.902;8.162;2023-02-15T13:16:24;4.50;;;1.00;;
7659;SDS011;3872;47.902;8.162;2023-02-15T13:18:56;4.33;;;1.30;;
7659;SDS011;3872;47.902;8.162;2023-02-15T13:21:31;4.10;;;0.87;;
7659;SDS011;3872;47.902;8.162;2023-02-15T13:24:02;7.50;;;1.00;;
7659;SDS011;3872;47.902;8.162;2023-02-15T13:26:34;5.47;;;1.00;;
7659;SDS011;3872;47.902;8.162;2023-02-15T13:29:04;5.37;;;1.30;;
7659;SDS011;3872;47.902;8.162;2023-02-15T13:31:34;8.03;;;1.20;;
7659;SDS011;3872;47.902;8.162;2023-02-15T13:34:03;7.60;;;1.17;;
7659;SDS011;3872;47.902;8.162;2023-02-15T13:36:40;5.00;;;1.20;;
7659;SDS011;3872;47.902;8.162;2023-02-15T13:39:15;13.03;;;1.37;;
7659;SDS011;3872;47.902;8.162;2023-02-15T13:41:52;8.63;;;1.30;;
7659;SDS011;3872;47.902;8.162;2023-02-15T13:44:26;5.83;;;1.37;;
7659;SDS011;3872;47.902;8.162;2023-02-15T13:47:06;11.53;;;3.20;;
7659;SDS011;3872;47.902;8.162;2023-02-15T13:49:48;6.17;;;1.03;;
7659;SDS011;3872;47.902;8.162;2023-02-15T13:52:28;6.00;;;0.90;;
7659;SDS011;3872;47.902;8.162;2023-02-15T13:55:07;4.57;;;1.30;;
7659;SDS011;3872;47.902;8.162;2023-02-15T13:57:59;8.00;;;1.10;;
7659;SDS011;3872;47.902;8.162;2023-02-15T14:00:38;4.90;;;1.23;;
7659;SDS011;3872;47.902;8.162;2023-02-15T14:03:14;4.10;;;0.90;;
7659;SDS011;3872;47.902;8.162;2023-02-15T14:06:00;6.40;;;0.90;;
7659;SDS011;3872;47.902;8.162;2023-02-15T14:08:42;6.63;;;0.97;;
7659;SDS011;3872;47.902;8.162;2023-02-15T14:11:21;5.57;;;1.10;;
7659;SDS011;3872;47.902;8.162;2023-02-15T14:14:00;4.83;;;1.10;;
7659;SDS011;3872;47.902;8.162;2023-02-15T14:16:54;4.50;;;1.10;;
7659;SDS011;3872;47.902;8.162;2023-02-15T14:19:31;5.70;;;1.30;;
7659;SDS011;3872;47.902;8.162;2023-02-15T14:22:07;4.40;;;1.07;;
7659;SDS011;3872;47.902;8.162;2023-02-15T14:24:44;4.10;;;1.00;;
7659;SDS011;3872;47.902;8.162;2023-02-15T14:27:21;4.50;;;1.37;;
7659;SDS011;3872;47.902;8.162;2023-02-15T14:29:53;5.60;;;1.27;;
7659;SDS011;3872;47.902;8.162;2023-02-15T14:32:25;11.33;;;1.57;;
7659;SDS011;3872;47.902;8.162;2023-02-15T14:34:57;4.50;;;1.30;;
7659;SDS011;3872;47.902;8.162;2023-02-15T14:37:29;4.37;;;1.07;;
7659;SDS011;3872;47.902;8.162;2023-02-15T14:40:08;9.87;;;1.37;;
7659;SDS011;3872;47.902;8.162;2023-02-15T14:43:02;6.30;;;1.33;;
7659;SDS011;3872;47.902;8.162;2023-02-15T14:45:35;5.27;;;1.00;;
7659;SDS011;3872;47.902;8.162;2023-02-15T14:48:10;5.07;;;1.33;;
7659;SDS011;3872;47.902;8.162;2023-02-15T14:50:43;4.23;;;0.90;;
7659;SDS011;3872;47.902;8.162;2023-02-15T14:53:14;5.47;;;1.10;;
7659;SDS011;3872;47.902;8.162;2023-02-15T14:56:15;13.73;;;1.10;;
7659;SDS011;3872;47.902;8.162;2023-02-15T14:58:54;5.20;;;1.73;;
7659;SDS011;3872;47.902;8.162;2023-02-15T15:01:25;6.50;;;1.60;;
7659;SDS011;3872;47.902;8.162;2023-02-15T15:03:54;4.90;;;1.23;;
7659;SDS011;3872;47.902;8.162;2023-02-15T15:06:24;5.00;;;1.27;;
7659;SDS011;3872;47.902;8.162;2023-02-15T15:08:54;8.13;;;1.83;;
7659;SDS011;3872;47.902;8.162;2023-02-15T15:11:42;5.23;;;1.20;;
7659;SDS011;3872;47.902;8.162;2023-02-15T15:14:13;4.30;;;1.30;;
7659;SDS011;3872;47.902;8.162;2023-02-15T15:17:08;8.20;;;1.30;;
7659;SDS011;3872;47.902;8.162;2023-02-15T15:19:56;5.77;;;1.30;;
7659;SDS011;3872;47.902;8.162;2023-02-15T15:22:25;6.10;;;1.77;;
7659;SDS011;3872;47.902;8.162;2023-02-15T15:24:52;8.60;;;4.07;;
7659;SDS011;3872;47.902;8.162;2023-02-15T15:33:24;5.60;;;1.67;;
7659;SDS011;3872;47.902;8.162;2023-02-15T15:39:33;9.10;;;1.80;;
7659;SDS011;3872;47.902;8.162;2023-02-15T15:42:29;3.90;;;1.40;;
7659;SDS011;3872;47.902;8.162;2023-02-15T15:45:17;4.57;;;1.47;;
7659;SDS011;3872;47.902;8.162;2023-02-15T15:48:00;4.60;;;1.33;;
7659;SDS011;3872;47.902;8.162;2023-02-15T15:50:38;7.00;;;1.30;;
7659;SDS011;3872;47.902;8.162;2023-02-15T15:53:06;5.93;;;1.37;;
7659;SDS011;3872;47.902;8.162;2023-02-15T15:55:45;6.50;;;1.70;;
7659;SDS011;3872;47.902;8.162;2023-02-15T15:58:15;5.37;;;1.40;;
7659;SDS011;3872;47.902;8.162;2023-02-15T16:00:46;6.70;;;2.20;;
7659;SDS011;3872;47.902;8.162;2023-02-15T16:03:18;4.67;;;1.90;;